createdAt,value
2023-04-05T00:01:32.708Z,4.90
2023-04-05T00:04:35.907Z,4.90
2023-04-05T00:07:39.649Z,5.13
2023-04-05T00:10:42.855Z,4.83
2023-04-05T00:13:45.977Z,5.23
2023-04-05T00:16:50.683Z,6.20
2023-04-05T00:19:57.391Z,5.43
2023-04-05T00:23:00.928Z,5.30
2023-04-05T00:26:04.215Z,6.00
2023-04-05T00:29:07.425Z,5.67
2023-04-05T00:32:13.338Z,5.33
2023-04-05T00:35:16.610Z,5.10
2023-04-05T00:38:19.675Z,5.10
2023-04-05T00:41:22.898Z,5.10
2023-04-05T00:44:28.872Z,5.20
2023-04-05T00:47:33.292Z,6.03
2023-04-05T00:50:36.901Z,6.27
2023-04-05T00:53:40.746Z,5.23
2023-04-05T00:56:43.903Z,5.03
2023-04-05T00:59:47.096Z,4.87
2023-04-05T01:02:57.785Z,4.63
2023-04-05T01:06:17.901Z,4.93
2023-04-05T01:09:30.649Z,5.43
2023-04-05T01:12:35.365Z,5.23
2023-04-05T01:15:38.543Z,4.90
2023-04-05T01:18:46.622Z,4.40
2023-04-05T01:22:20.274Z,5.10
2023-04-05T01:26:07.127Z,5.70
2023-04-05T01:29:46.180Z,5.63
2023-04-05T01:32:58.202Z,4.60
2023-04-05T01:36:08.531Z,4.97
2023-04-05T01:39:15.538Z,4.97
2023-04-05T01:42:25.378Z,5.20
2023-04-05T01:45:29.933Z,5.37
2023-04-05T01:48:32.931Z,5.30
2023-04-05T01:51:35.928Z,4.80
2023-04-05T01:54:38.929Z,4.93
2023-04-05T01:57:41.877Z,4.83
2023-04-05T02:00:46.480Z,5.30
2023-04-05T02:03:50.027Z,4.83
2023-04-05T02:06:55.812Z,5.20
2023-04-05T02:09:58.803Z,5.20
2023-04-05T02:13:02.280Z,5.00
2023-04-05T02:16:07.058Z,5.00
2023-04-05T02:19:10.494Z,4.87
2023-04-05T02:22:14.166Z,5.27
2023-04-05T02:25:17.304Z,5.20
2023-04-05T02:28:20.349Z,5.10
2023-04-05T02:31:24.794Z,5.30
2023-04-05T02:34:27.888Z,5.00
2023-04-05T02:37:32.357Z,4.67
2023-04-05T02:40:36.524Z,4.73
2023-04-05T02:43:39.735Z,5.03
2023-04-05T02:46:44.466Z,5.43
2023-04-05T02:49:47.610Z,4.97
2023-04-05T02:52:50.983Z,5.60
2023-04-05T02:55:57.304Z,4.80
2023-04-05T02:59:00.653Z,4.90
2023-04-05T03:02:05.285Z,5.10
2023-04-05T03:05:10.093Z,5.10
2023-04-05T03:08:18.607Z,6.00
2023-04-05T03:11:21.646Z,5.63
2023-04-05T03:14:24.675Z,4.53
2023-04-05T03:17:29.055Z,5.60
2023-04-05T03:20:32.135Z,6.23
2023-04-05T03:23:35.115Z,6.70
2023-04-05T03:26:38.146Z,5.73
2023-04-05T03:29:41.159Z,5.40
2023-04-05T03:32:46.152Z,6.30
2023-04-05T03:35:50.003Z,6.53
2023-04-05T03:38:53.069Z,6.33
2023-04-05T03:41:56.876Z,9.10
2023-04-05T03:44:59.985Z,6.23
2023-04-05T03:48:05.109Z,5.53
2023-04-05T03:51:08.143Z,5.27
2023-04-05T03:54:11.215Z,6.03
2023-04-05T03:57:17.014Z,7.63
2023-04-05T04:00:20.391Z,6.20
2023-04-05T04:03:26.127Z,5.93
2023-04-05T04:06:30.683Z,5.40
2023-04-05T04:09:34.160Z,5.80
2023-04-05T04:12:37.229Z,8.40
2023-04-05T04:15:40.969Z,6.20
2023-04-05T04:18:45.664Z,6.37
2023-04-05T04:21:52.008Z,6.33
2023-04-05T04:24:55.252Z,6.73
2023-04-05T04:27:59.164Z,6.20
2023-04-05T04:31:04.836Z,6.43
2023-04-05T04:34:10.264Z,6.07
2023-04-05T04:37:17.708Z,6.90
2023-04-05T04:40:21.284Z,5.50
2023-04-05T04:43:26.733Z,5.70
2023-04-05T04:46:34.876Z,5.83
2023-04-05T04:49:39.853Z,5.77
2023-04-05T04:52:44.622Z,6.13
2023-04-05T04:55:50.374Z,5.53
2023-04-05T04:58:56.006Z,6.53
2023-04-05T05:01:58.986Z,5.93
2023-04-05T05:05:03.519Z,6.50
2023-04-05T05:08:06.988Z,5.43
2023-04-05T05:11:10.596Z,5.90
2023-04-05T05:14:13.750Z,5.30
2023-04-05T05:17:16.933Z,5.53
2023-04-05T05:20:21.987Z,5.73
2023-04-05T05:23:25.076Z,6.73
2023-04-05T05:26:28.062Z,5.73
2023-04-05T05:29:31.709Z,5.33
2023-04-05T05:32:34.808Z,5.67
2023-04-05T05:35:39.169Z,5.30
2023-04-05T05:38:43.065Z,5.47
2023-04-05T05:41:46.402Z,6.17
2023-04-05T05:44:49.386Z,5.50
2023-04-05T05:47:52.370Z,6.10
2023-04-05T05:50:57.315Z,6.17
2023-04-05T05:54:00.772Z,7.90
2023-04-05T05:57:03.809Z,8.10
2023-04-05T06:00:10.700Z,5.40
2023-04-05T06:03:14.174Z,5.80
2023-04-05T06:06:18.550Z,6.77
2023-04-05T06:09:23.134Z,6.30
2023-04-05T06:12:28.260Z,5.97
2023-04-05T06:15:32.568Z,7.03
2023-04-05T06:18:37.958Z,6.90
2023-04-05T06:21:42.302Z,8.23
2023-04-05T06:24:45.311Z,6.40
2023-04-05T06:27:48.269Z,7.43
2023-04-05T06:30:51.372Z,6.80
2023-04-05T06:33:54.389Z,6.00
2023-04-05T06:36:59.802Z,5.53
2023-04-05T06:40:03.013Z,6.43
2023-04-05T06:43:07.070Z,6.67
2023-04-05T06:46:12.449Z,5.87
2023-04-05T06:49:15.695Z,5.83
2023-04-05T06:52:20.036Z,5.57
2023-04-05T06:55:23.150Z,6.50
2023-04-05T06:58:27.539Z,6.60
2023-04-05T07:01:31.045Z,8.37
2023-04-05T07:04:36.872Z,7.00
2023-04-05T07:07:44.373Z,6.63
2023-04-05T07:10:47.798Z,7.70
2023-04-05T07:13:51.614Z,7.83
2023-04-05T07:16:54.893Z,7.70
2023-04-05T07:19:59.442Z,7.57
2023-04-05T07:23:05.527Z,7.63
2023-04-05T07:26:08.572Z,6.87
2023-04-05T07:29:13.160Z,7.30
2023-04-05T07:32:16.507Z,9.03
2023-04-05T07:35:19.724Z,6.83
2023-04-05T07:38:24.422Z,7.37
2023-04-05T07:41:31.663Z,7.27
2023-04-05T07:44:34.630Z,7.17
2023-04-05T07:47:37.866Z,7.33
2023-04-05T07:50:42.446Z,7.63
2023-04-05T07:53:47.160Z,6.57
2023-04-05T07:56:50.500Z,7.57
2023-04-05T07:59:55.727Z,6.43
2023-04-05T08:03:01.753Z,6.87
2023-04-05T08:06:11.993Z,7.80
2023-04-05T08:09:17.949Z,6.57
2023-04-05T08:12:20.877Z,7.33
2023-04-05T08:15:23.881Z,6.57
2023-04-05T08:18:26.860Z,6.20
2023-04-05T08:21:29.937Z,8.47
2023-04-05T08:24:34.345Z,6.73
2023-04-05T08:27:37.346Z,6.70
2023-04-05T08:30:40.561Z,5.80
2023-04-05T08:33:43.874Z,5.57
2023-04-05T08:36:48.278Z,6.40
2023-04-05T08:39:53.540Z,7.53
2023-04-05T08:43:03.664Z,6.27
2023-04-05T08:46:13.435Z,5.80
2023-04-05T08:49:16.893Z,6.00
2023-04-05T08:52:20.137Z,5.27
2023-04-05T08:55:24.776Z,6.13
2023-04-05T08:58:29.342Z,5.63
2023-04-05T09:01:33.548Z,5.77
2023-04-05T09:04:44.565Z,6.37
2023-04-05T09:07:48.025Z,6.17
2023-04-05T09:10:52.872Z,5.60
2023-04-05T09:13:55.976Z,5.33
2023-04-05T09:17:01.339Z,6.50
2023-04-05T09:20:04.509Z,6.93
2023-04-05T09:23:07.577Z,5.70
2023-04-05T09:26:22.485Z,8.63
2023-04-05T09:29:33.324Z,5.27
2023-04-05T09:32:36.478Z,5.70
2023-04-05T09:35:39.508Z,6.40
2023-04-05T09:38:47.574Z,6.70
2023-04-05T09:42:07.165Z,5.73
2023-04-05T09:45:11.001Z,7.37
2023-04-05T09:48:14.385Z,10.90
2023-04-05T09:51:18.146Z,7.07
2023-04-05T09:54:21.188Z,6.00
2023-04-05T09:57:27.098Z,6.00
2023-04-05T10:00:31.293Z,5.47
2023-04-05T10:03:47.881Z,6.70
2023-04-05T10:06:51.393Z,4.70
2023-04-05T10:09:54.409Z,5.93
2023-04-05T10:12:59.161Z,5.20
2023-04-05T10:16:07.055Z,5.30
2023-04-05T10:19:19.595Z,5.57
2023-04-05T10:22:31.019Z,5.83
2023-04-05T10:25:48.587Z,6.60
2023-04-05T10:28:57.087Z,5.17
2023-04-05T10:32:06.423Z,5.50
2023-04-05T10:35:16.642Z,5.40
2023-04-05T10:38:25.644Z,4.97
2023-04-05T10:41:31.516Z,5.23
2023-04-05T10:44:37.730Z,5.33
2023-04-05T10:47:48.596Z,5.70
2023-04-05T10:50:51.997Z,5.03
2023-04-05T10:53:57.767Z,5.33
2023-04-05T10:57:02.892Z,5.73
2023-04-05T11:00:09.151Z,5.43
2023-04-05T11:03:12.150Z,6.07
2023-04-05T11:06:26.532Z,5.53
2023-04-05T11:09:29.888Z,6.03
2023-04-05T11:13:04.681Z,6.10
2023-04-05T11:16:11.590Z,5.50
2023-04-05T11:19:17.513Z,5.90
2023-04-05T11:22:28.921Z,5.20
2023-04-05T11:25:33.407Z,5.37
2023-04-05T11:28:40.900Z,5.17
2023-04-05T11:35:23.125Z,5.23
2023-04-05T11:38:26.415Z,4.87
2023-04-05T11:41:34.630Z,5.57
2023-04-05T11:44:46.401Z,5.63
2023-04-05T11:47:49.524Z,5.77
2023-04-05T11:50:55.991Z,6.00
2023-04-05T11:53:59.246Z,5.70
2023-04-05T11:57:03.830Z,6.47
2023-04-05T12:00:09.618Z,4.83
2023-04-05T12:03:13.994Z,5.80
2023-04-05T12:06:18.718Z,6.07
2023-04-05T12:09:21.975Z,5.73
2023-04-05T12:12:25.280Z,4.97
2023-04-05T12:15:28.459Z,4.67
2023-04-05T12:18:33.358Z,5.80
2023-04-05T12:21:38.441Z,5.57
2023-04-05T12:24:41.738Z,5.57
2023-04-05T12:27:46.656Z,6.33
2023-04-05T12:30:50.636Z,7.03
2023-04-05T12:34:00.368Z,4.70
2023-04-05T12:37:05.093Z,5.10
2023-04-05T12:40:09.370Z,5.07
2023-04-05T12:43:19.495Z,5.20
2023-04-05T12:46:22.570Z,4.23
2023-04-05T12:49:28.552Z,5.23
2023-04-05T12:52:36.139Z,4.80
2023-04-05T12:55:45.842Z,4.93
2023-04-05T12:58:51.017Z,5.33
2023-04-05T13:01:54.529Z,5.47
2023-04-05T13:04:57.610Z,5.33
2023-04-05T13:08:01.972Z,4.60
2023-04-05T13:11:04.956Z,5.23
2023-04-05T13:14:08.490Z,5.60
2023-04-05T13:17:11.608Z,4.63
2023-04-05T13:20:14.626Z,4.43
2023-04-05T13:23:19.099Z,5.40
2023-04-05T13:26:23.559Z,5.53
2023-04-05T13:29:26.583Z,4.90
2023-04-05T13:32:29.768Z,6.13
2023-04-05T13:35:33.128Z,4.30
2023-04-05T13:38:37.941Z,4.90
2023-04-05T13:41:41.040Z,5.57
2023-04-05T13:44:44.352Z,4.70
2023-04-05T13:47:47.621Z,5.03
2023-04-05T13:50:50.822Z,4.43
2023-04-05T13:53:55.548Z,5.23
2023-04-05T13:56:59.097Z,4.80
2023-04-05T14:00:02.164Z,5.70
2023-04-05T14:03:05.526Z,5.03
2023-04-05T14:06:08.928Z,5.07
2023-04-05T14:09:13.572Z,5.33
2023-04-05T14:12:16.958Z,4.70
2023-04-05T14:15:20.758Z,4.70
2023-04-05T14:18:24.000Z,5.00
2023-04-05T14:21:27.729Z,5.10
2023-04-05T14:24:32.907Z,4.77
2023-04-05T14:27:41.248Z,5.33
2023-04-05T14:30:44.469Z,4.40
2023-04-05T14:33:47.680Z,4.40
2023-04-05T14:36:51.100Z,4.77
2023-04-05T14:39:55.848Z,4.77
2023-04-05T14:42:59.050Z,4.33
2023-04-05T14:46:02.400Z,4.37
2023-04-05T14:49:05.717Z,4.60
2023-04-05T14:52:08.902Z,5.50
2023-04-05T14:55:14.123Z,4.80
2023-04-05T14:58:17.354Z,5.50
2023-04-05T15:01:20.626Z,4.60
2023-04-05T15:04:24.419Z,5.87
2023-04-05T15:07:28.051Z,5.53
2023-04-05T15:10:32.787Z,5.67
2023-04-05T15:13:36.496Z,4.70
2023-04-05T15:16:39.869Z,4.63
2023-04-05T15:19:43.154Z,5.17
2023-04-05T15:22:46.316Z,8.13
2023-04-05T15:25:51.077Z,5.03
2023-04-05T15:28:54.385Z,4.57
2023-04-05T15:31:58.022Z,4.90
2023-04-05T15:35:01.276Z,5.40
2023-04-05T15:38:04.988Z,4.90
2023-04-05T15:41:11.127Z,5.30
2023-04-05T15:44:14.584Z,4.73
2023-04-05T15:47:17.750Z,8.63
2023-04-05T15:50:21.775Z,4.47
2023-04-05T15:53:25.059Z,5.17
2023-04-05T15:56:29.750Z,4.77
2023-04-05T15:59:32.949Z,4.70
2023-04-05T16:02:38.273Z,4.17
2023-04-05T16:05:41.525Z,4.87
2023-04-05T16:08:44.664Z,5.13
2023-04-05T16:11:49.584Z,4.90
2023-04-05T16:14:52.922Z,5.33
2023-04-05T16:17:56.123Z,4.70
2023-04-05T16:20:59.364Z,4.40
2023-04-05T16:24:03.929Z,4.63
2023-04-05T16:27:08.561Z,4.57
2023-04-05T16:30:12.292Z,5.50
2023-04-05T16:33:15.766Z,4.60
2023-04-05T16:36:22.318Z,5.07
2023-04-05T16:39:25.458Z,4.07
2023-04-05T16:42:30.740Z,5.33
2023-04-05T16:45:36.412Z,6.23
2023-04-05T16:48:39.927Z,5.83
2023-04-05T16:51:43.358Z,5.43
2023-04-05T16:54:48.176Z,5.87
2023-04-05T16:57:56.663Z,6.27
2023-04-05T17:01:00.408Z,7.80
2023-04-05T17:04:03.862Z,6.20
2023-04-05T17:07:07.852Z,5.47
2023-04-05T17:10:11.195Z,6.10
2023-04-05T17:13:16.425Z,6.23
2023-04-05T17:16:22.009Z,6.40
2023-04-05T17:19:25.346Z,6.90
2023-04-05T17:22:28.758Z,7.00
2023-04-05T17:25:32.414Z,7.83
2023-04-05T17:28:37.083Z,6.53
2023-04-05T17:31:42.011Z,6.37
2023-04-05T17:34:45.362Z,7.60
2023-04-05T17:37:48.628Z,7.80
2023-04-05T17:40:53.445Z,6.17
2023-04-05T17:43:58.678Z,6.63
2023-04-05T17:47:09.004Z,6.90
2023-04-05T17:50:12.999Z,6.70
2023-04-05T17:53:16.974Z,8.47
2023-04-05T17:56:21.469Z,7.23
2023-04-05T17:59:26.547Z,7.40
2023-04-05T18:02:30.221Z,7.37
2023-04-05T18:05:33.705Z,7.63
2023-04-05T18:08:36.963Z,7.37
2023-04-05T18:11:41.092Z,7.70
2023-04-05T18:14:46.392Z,7.30
2023-04-05T18:17:49.955Z,9.70
2023-04-05T18:20:53.778Z,16.83
2023-04-05T18:23:58.021Z,9.73
2023-04-05T18:27:01.161Z,8.33
2023-04-05T18:30:07.897Z,9.07
2023-04-05T18:33:11.455Z,9.33
2023-04-05T18:36:14.890Z,11.57
2023-04-05T18:39:20.044Z,8.00
2023-04-05T18:42:23.327Z,7.20
2023-04-05T18:45:28.026Z,8.23
2023-04-05T18:48:31.476Z,8.80
2023-04-05T18:51:34.692Z,11.43
2023-04-05T18:54:39.735Z,8.93
2023-04-05T18:57:43.315Z,10.23
2023-04-05T19:00:47.946Z,9.73
2023-04-05T19:03:51.578Z,10.43
2023-04-05T19:06:56.796Z,9.63
2023-04-05T19:10:00.052Z,10.27
2023-04-05T19:13:03.633Z,9.87
2023-04-05T19:16:08.619Z,9.23
2023-04-05T19:19:11.875Z,9.73
2023-04-05T19:22:15.394Z,8.70
2023-04-05T19:25:18.671Z,8.67
2023-04-05T19:28:22.270Z,8.57
2023-04-05T19:31:27.790Z,9.30
2023-04-05T19:34:32.736Z,11.20
2023-04-05T19:37:36.134Z,10.07
2023-04-05T19:40:40.034Z,11.03
2023-04-05T19:43:43.278Z,9.67
2023-04-05T19:46:48.104Z,8.83
2023-04-05T19:49:52.590Z,8.00
2023-04-05T19:52:56.003Z,11.03
2023-04-05T19:55:59.256Z,9.53
2023-04-05T19:59:04.652Z,8.83
2023-04-05T20:02:20.340Z,8.27
2023-04-05T20:05:57.613Z,10.03
2023-04-05T20:09:04.577Z,8.97
2023-04-05T20:12:08.538Z,11.00
2023-04-05T20:15:13.611Z,10.00
2023-04-05T20:18:23.934Z,12.57
2023-04-05T20:21:27.236Z,13.30
2023-04-05T20:24:30.735Z,11.97
2023-04-05T20:27:33.960Z,9.90
2023-04-05T20:30:37.167Z,10.03
2023-04-05T20:33:47.989Z,9.97
2023-04-05T20:36:52.598Z,9.70
2023-04-05T20:39:55.769Z,11.77
2023-04-05T20:43:00.905Z,13.57
2023-04-05T20:46:06.140Z,12.33
2023-04-05T20:49:11.723Z,11.90
2023-04-05T20:52:15.921Z,12.60
2023-04-05T20:55:19.168Z,13.57
2023-04-05T20:58:23.795Z,9.73
2023-04-05T21:01:27.314Z,10.40
2023-04-05T21:04:31.922Z,9.83
2023-04-05T21:07:36.464Z,10.87
2023-04-05T21:10:40.058Z,10.60
2023-04-05T21:13:43.519Z,11.47
2023-04-05T21:16:47.001Z,11.57
2023-04-05T21:19:51.617Z,11.60
2023-04-05T21:22:55.063Z,11.43
2023-04-05T21:25:59.204Z,10.60
2023-04-05T21:29:02.621Z,10.47
2023-04-05T21:32:06.247Z,11.27
2023-04-05T21:35:11.577Z,12.33
2023-04-05T21:38:15.963Z,12.20
2023-04-05T21:41:19.292Z,11.70
2023-04-05T21:44:23.726Z,11.70
2023-04-05T21:47:26.953Z,10.87
2023-04-05T21:50:31.997Z,11.37
2023-04-05T21:53:35.343Z,11.67
2023-04-05T21:56:38.828Z,11.00
2023-04-05T21:59:42.083Z,9.13
2023-04-05T22:02:45.591Z,11.67
2023-04-05T22:05:50.191Z,10.30
2023-04-05T22:08:54.583Z,11.17
2023-04-05T22:11:58.947Z,10.90
2023-04-05T22:15:02.936Z,11.10
2023-04-05T22:18:06.755Z,11.07
2023-04-05T22:21:11.420Z,11.10
2023-04-05T22:24:16.124Z,13.13
2023-04-05T22:27:19.742Z,10.17
2023-04-05T22:30:23.060Z,9.47
2023-04-05T22:33:26.263Z,9.70
2023-04-05T22:36:31.569Z,10.60
2023-04-05T22:39:34.764Z,11.90
2023-04-05T22:42:39.204Z,10.57
2023-04-05T22:45:42.384Z,11.17
2023-04-05T22:48:45.891Z,10.70
2023-04-05T22:51:50.573Z,11.67
2023-04-05T22:54:53.778Z,10.90
2023-04-05T22:57:56.983Z,10.60
2023-04-05T23:01:01.655Z,10.37
2023-04-05T23:04:05.150Z,10.87
2023-04-05T23:07:09.767Z,11.17
2023-04-05T23:10:13.088Z,10.70
2023-04-05T23:13:17.154Z,11.57
2023-04-05T23:16:20.440Z,10.23
2023-04-05T23:19:23.821Z,11.00
2023-04-05T23:22:28.847Z,11.17
2023-04-05T23:25:32.103Z,10.47
2023-04-05T23:28:35.251Z,12.20
2023-04-05T23:31:38.539Z,10.33
2023-04-05T23:34:41.774Z,10.20
2023-04-05T23:37:46.935Z,10.90
2023-04-05T23:40:50.139Z,11.30
2023-04-05T23:43:53.393Z,10.70
2023-04-05T23:46:56.615Z,11.67
2023-04-05T23:49:59.848Z,11.20
2023-04-05T23:53:04.560Z,10.60
2023-04-05T23:56:11.711Z,11.93
2023-04-05T23:59:15.709Z,12.47
